Pacific - South Coast: Past 24 Hour Conditions

 

Esquimalt Harbour

10:00 PM PDT 24 July 2014
This table is a summary of hourly weather conditions for the past 24 hours.
Date / Time
(PDT)
Wind(knots) Conditions Visibility(km) Pressure(kPa) Air tempC) Relative humidity(%) Dew pointC)
24 July 2014
22:00 SW 10 gust 16 N/A N/A 102.2 15 73 10
21:00 SSW 9 N/A N/A 102.2 15 72 10
20:00 SW 13 N/A N/A 102.2 16 68 10
19:00 SW 12 N/A N/A 102.2 16 64 10
18:00 WSW 12 gust 18 N/A N/A 102.2 17 56 8
17:00 WSW 9 gust 15 N/A N/A 102.2 18 53 8
16:00 SSW 14 gust 20 N/A N/A 102.2 17 60 9
15:00 SW 13 gust 21 N/A N/A 102.2 17 60 9
14:00 SW 11 gust 23 N/A N/A 102.2 17 60 9
13:00 SW 16 gust 24 N/A N/A 102.1 16 66 10
12:00 SW 19 gust 27 N/A N/A 102.1 16 70 10
11:00 SSW 10 gust 17 N/A N/A 102.1 15 76 11
10:00 SW 17 gust 23 N/A N/A 101.9 15 79 11
9:00 SSW 17 gust 24 N/A N/A 101.9 14 81 11
8:00 SW 8 gust 17 N/A N/A 101.8 14 81 11
7:00 SE 5 N/A N/A 101.8 12 94 11
6:00 SE 7 N/A N/A 101.8 12 92 11
5:00 SSE 3 N/A N/A 101.7 12 91 11
4:00 SSW 5 N/A N/A 101.7 12 91 11
3:00 calm N/A N/A 101.7 13 89 12
2:00 N 2 N/A N/A 101.6 13 89 12
1:00 NNE 2 N/A N/A 101.6 13 88 11
0:00 N 1 N/A N/A 101.6 13 89 11
23 July 2014
23:00 N 2 N/A N/A 101.6 13 88 11
22:00 NW 3 N/A N/A 101.7 14 85 11
 
Map of Pacific - South Coast marine weather areas Tsawwassen Ferry Terminal South Nomad - 46036 Sentry Shoal - 46131 South Brooks - 46132 Halibut Bank - 46146 South Moresby - 46147 South Hecate Strait - 46185 West Sea Otter - 46204 La Perouse Bank - 46206 East Dellwood - 46207 Discovery Island Esquimalt Harbour Kelp Reefs Malahat Race Rocks Lightstation Saturna Island Sheringham Point University of Victoria Victoria Gonzales Victoria Int'l Airport Ballenas Islands Campbell River Airport Comox Airport Entrance Island Fanny Island Nanaimo Airport Port Hardy Airport Sisters Islets Estevan Point Sartine Island Solander Island Tofino Airport Grief Point Powell River Airport Sechelt Cape St.James Bella Bella Airport Bella Coola Airport Cathedral Point Herbert Island Point Atkinson Sand Heads Lightstation Vancouver Harbour Vancouver Int'l Airport West Vancouver Port Alberni Howe Sound - Pam Rocks Squamish Airport